^^
Saratoga-Weather Station Historical Data
Daily Summary for January 23, 2021 Units:  English    Metric   Both
Daily Weekly Monthly Yearly Custom
  High: Low: Average:
Temperature: 67.3 °F 43 °F 54 °F
Dew Point: 50.9 °F 41.2 °F 46.9 °F
Humidity: 95% 54% 79%
Wind Speed: 6.9mph 0mph 0.7mph
Wind Gust: 11mph - -
Wind- - SSE
Pressure: 30.5 in 30.3 in -
Precipitation: 0 in    
Historical Graphs
 
 
Tabular Data for January 23, 2021
Time Temperature Dew Point Pressure Wind Wind Speed Wind Gust Humidity Rainfall Rate (Hourly) solar
00:04 46.8 °F 44.2 °F 30.3 in Calm     91% 0 in 0 W/m2
00:09 46.8 °F 44.2 °F 30.3 in Calm     91% 0 in 0 W/m2
00:14 46.8 °F 44.2 °F 30.3 in Calm     91% 0 in 0 W/m2
00:19 46.8 °F 44.2 °F 30.3 in Calm     91% 0 in 0 W/m2
00:24 46.8 °F 44.2 °F 30.3 in Calm     91% 0 in 0 W/m2
00:29 46.8 °F 44.2 °F 30.3 in Calm     91% 0 in 0 W/m2
00:34 46.8 °F 44.2 °F 30.3 in Calm     91% 0 in 0 W/m2
00:40 46.6 °F 44.1 °F 30.3 in Calm     91% 0 in 0 W/m2
00:59 46.6 °F 44.1 °F 30.4 in Calm     91% 0 in 0 W/m2
01:04 46.6 °F 44.1 °F 30.4 in Calm     91% 0 in 0 W/m2
01:09 46.6 °F 44.1 °F 30.4 in Calm     91% 0 in 0 W/m2
01:14 46.6 °F 44.1 °F 30.4 in Calm     91% 0 in 0 W/m2
01:19 46.4 °F 43.9 °F 30.4 in Calm     91% 0 in 0 W/m2
01:24 46.2 °F 43.7 °F 30.4 in Calm     91% 0 in 0 W/m2
01:29 46.2 °F 43.7 °F 30.4 in Calm     91% 0 in 0 W/m2
01:46 45.9 °F 43.3 °F 30.4 in Calm     91% 0 in 0 W/m2
01:51 45.9 °F 43.3 °F 30.4 in Calm     91% 0 in 0 W/m2
01:56 46 °F 43.9 °F 30.4 in Calm   1 mph 92% 0 in 0 W/m2
02:01 46.2 °F 44.1 °F 30.4 in Calm   1 mph 92% 0 in 0 W/m2
02:06 46.4 °F 44.2 °F 30.4 in Calm     92% 0 in 0 W/m2
02:11 46.6 °F 44.4 °F 30.4 in Calm     92% 0 in 0 W/m2
02:16 46.6 °F 44.1 °F 30.4 in Calm     91% 0 in 0 W/m2
02:21 46.6 °F 44.1 °F 30.4 in Calm     91% 0 in 0 W/m2
02:26 46.6 °F 44.1 °F 30.4 in Calm     91% 0 in 0 W/m2
02:47 46.6 °F 44.1 °F 30.4 in Calm     91% 0 in 0 W/m2
02:52 46.6 °F 44.1 °F 30.4 in Calm     91% 0 in 0 W/m2
02:57 46.6 °F 44.1 °F 30.4 in Calm     91% 0 in 0 W/m2
03:02 46.6 °F 44.1 °F 30.4 in Calm     91% 0 in 0 W/m2
03:07 46.4 °F 43.9 °F 30.4 in Calm     91% 0 in 0 W/m2
03:12 46.4 °F 43.9 °F 30.4 in Calm     91% 0 in 0 W/m2
03:17 46.4 °F 43.9 °F 30.4 in Calm   1 mph 91% 0 in 0 W/m2
03:22 46.6 °F 44.1 °F 30.4 in Calm     91% 0 in 0 W/m2
03:27 46.4 °F 43.9 °F 30.4 in Calm     91% 0 in 0 W/m2
03:32 46.4 °F 43.9 °F 30.4 in Calm     91% 0 in 0 W/m2
03:37 46.4 °F 43.9 °F 30.4 in Calm   1 mph 91% 0 in 0 W/m2
03:42 46.6 °F 44.1 °F 30.4 in Calm     91% 0 in 0 W/m2
03:47 46.6 °F 44.1 °F 30.4 in Calm     91% 0 in 0 W/m2
03:52 46.4 °F 43.9 °F 30.4 in Calm     91% 0 in 0 W/m2
03:57 46.2 °F 43.7 °F 30.4 in Calm     91% 0 in 0 W/m2
04:02 46.2 °F 43.7 °F 30.4 in Calm     91% 0 in 0 W/m2
04:07 46.2 °F 43.7 °F 30.4 in Calm     91% 0 in 0 W/m2
04:12 46.2 °F 43.7 °F 30.4 in Calm     91% 0 in 0 W/m2
04:17 46.2 °F 43.7 °F 30.4 in Calm     91% 0 in 0 W/m2
04:22 46.2 °F 43.7 °F 30.4 in Calm     91% 0 in 0 W/m2
04:27 46.2 °F 43.7 °F 30.4 in Calm     91% 0 in 0 W/m2
04:32 46.2 °F 43.7 °F 30.4 in Calm     91% 0 in 0 W/m2
04:37 46 °F 43.5 °F 30.4 in Calm     91% 0 in 0 W/m2
04:42 46 °F 43.5 °F 30.4 in Calm     91% 0 in 0 W/m2
04:47 46 °F 43.5 °F 30.4 in Calm     91% 0 in 0 W/m2
04:52 45.9 °F 43.3 °F 30.4 in Calm     91% 0 in 0 W/m2
04:57 45.9 °F 43.3 °F 30.4 in Calm     91% 0 in 0 W/m2
05:02 45.7 °F 43 °F 30.4 in Calm     90% 0 in 0 W/m2
05:07 45.5 °F 43 °F 30.4 in Calm     91% 0 in 0 W/m2
05:26 45 °F 42.4 °F 30.4 in Calm     91% 0 in 0 W/m2
05:31 44.8 °F 42.3 °F 30.4 in Calm     91% 0 in 0 W/m2
05:36 44.8 °F 42.6 °F 30.4 in Calm     92% 0 in 0 W/m2
05:41 44.8 °F 42.6 °F 30.4 in Calm     92% 0 in 0 W/m2
05:46 44.8 °F 42.6 °F 30.4 in Calm     92% 0 in 0 W/m2
05:51 44.8 °F 42.6 °F 30.4 in Calm     92% 0 in 0 W/m2
05:56 44.4 °F 42.3 °F 30.4 in Calm     92% 0 in 0 W/m2
06:01 44.4 °F 42.3 °F 30.4 in Calm     92% 0 in 0 W/m2
06:06 44.2 °F 42.1 °F 30.4 in Calm     92% 0 in 0 W/m2
06:11 44.1 °F 41.9 °F 30.4 in Calm     92% 0 in 0 W/m2
06:16 44.1 °F 41.9 °F 30.4 in Calm     92% 0 in 0 W/m2
06:21 43.9 °F 41.7 °F 30.4 in Calm     92% 0 in 0 W/m2
06:26 43.7 °F 41.5 °F 30.4 in Calm     92% 0 in 0 W/m2
06:31 43.5 °F 41.7 °F 30.4 in Calm     93% 0 in 0 W/m2
06:36 43.5 °F 41.7 °F 30.4 in Calm     93% 0 in 0 W/m2
06:41 43.5 °F 41.7 °F 30.4 in Calm     93% 0 in 0 W/m2
06:46 43.5 °F 41.7 °F 30.4 in Calm     93% 0 in 0 W/m2
06:51 43.3 °F 41.5 °F 30.4 in Calm     93% 0 in 0 W/m2
06:56 43.3 °F 41.5 °F 30.4 in Calm     93% 0 in 0 W/m2
07:01 43.2 °F 41.4 °F 30.4 in Calm     93% 0 in 0 W/m2
07:06 43.2 °F 41.4 °F 30.4 in Calm     93% 0 in 0 W/m2
07:11 43 °F 41.2 °F 30.4 in Calm     93% 0 in 0 W/m2
07:16 43 °F 41.4 °F 30.4 in Calm     94% 0 in 0 W/m2
07:21 43 °F 41.4 °F 30.4 in Calm     94% 0 in 0 W/m2
07:26 43.2 °F 41.5 °F 30.4 in Calm     94% 0 in 0 W/m2
07:31 43.2 °F 41.5 °F 30.4 in Calm     94% 0 in 0 W/m2
07:36 43.2 °F 41.5 °F 30.4 in Calm     94% 0 in 5 W/m2
07:41 43.2 °F 41.5 °F 30.4 in Calm     94% 0 in 7 W/m2
07:46 43.2 °F 41.5 °F 30.4 in Calm     94% 0 in 11 W/m2
07:51 43.2 °F 41.9 °F 30.4 in ENE 2 mph 2 mph 95% 0 in 16 W/m2
07:56 43.9 °F 42.6 °F 30.4 in ENE 2 mph 2 mph 95% 0 in 19 W/m2
08:01 44.1 °F 42.8 °F 30.4 in Calm   1 mph 95% 0 in 25 W/m2
08:06 44.1 °F 42.4 °F 30.4 in Calm     94% 0 in 25 W/m2
08:11 44.1 °F 42.4 °F 30.4 in Calm     94% 0 in 25 W/m2
08:16 44.1 °F 42.4 °F 30.4 in Calm     94% 0 in 26 W/m2
08:21 44.1 °F 42.4 °F 30.4 in Calm     94% 0 in 33 W/m2
08:26 44.2 °F 42.6 °F 30.5 in Calm     94% 0 in 44 W/m2
08:31 44.2 °F 43 °F 30.5 in Calm     95% 0 in 56 W/m2
08:36 44.4 °F 43.2 °F 30.5 in Calm     95% 0 in 53 W/m2
08:41 44.8 °F 43.5 °F 30.5 in Calm   1 mph 95% 0 in 51 W/m2
08:48 45.1 °F 43.9 °F 30.5 in Calm     95% 0 in 56 W/m2
08:53 45.7 °F 44.4 °F 30.5 in Calm     95% 0 in 63 W/m2
08:58 45.9 °F 44.2 °F 30.5 in Calm     94% 0 in 77 W/m2
09:03 46.2 °F 44.8 °F 30.5 in Calm     95% 0 in 76 W/m2
09:08 46.8 °F 45.1 °F 30.5 in Calm     94% 0 in 91 W/m2
09:13 47.1 °F 45.5 °F 30.5 in Calm     94% 0 in 100 W/m2
09:18 47.7 °F 45.7 °F 30.5 in Calm     93% 0 in 93 W/m2
09:23 48 °F 46 °F 30.5 in Calm     93% 0 in 104 W/m2
09:28 48.4 °F 46.2 °F 30.5 in Calm     92% 0 in 151 W/m2
09:33 48.7 °F 46.6 °F 30.5 in Calm     92% 0 in 125 W/m2
09:38 49.1 °F 46.6 °F 30.5 in Calm     91% 0 in 146 W/m2
09:43 49.5 °F 46.6 °F 30.5 in Calm     90% 0 in 169 W/m2
09:48 49.8 °F 46.8 °F 30.5 in Calm     89% 0 in 114 W/m2
09:53 50.2 °F 46.8 °F 30.5 in Calm     88% 0 in 155 W/m2
09:59 50.7 °F 46.9 °F 30.5 in Calm     87% 0 in 158 W/m2
10:04 51.1 °F 47.1 °F 30.5 in Calm     86% 0 in 111 W/m2
10:09 51.4 °F 47.1 °F 30.5 in Calm     85% 0 in 253 W/m2
10:14 51.8 °F 47.5 °F 30.5 in Calm     85% 0 in 269 W/m2
10:19 52.3 °F 48 °F 30.5 in Calm     85% 0 in 269 W/m2
10:24 52.9 °F 47.8 °F 30.5 in Calm     83% 0 in 279 W/m2
10:29 53.2 °F 48.2 °F 30.5 in Calm     83% 0 in 294 W/m2
10:34 54.3 °F 48.9 °F 30.5 in East 2.9 mph 4 mph 82% 0 in 288 W/m2
10:39 55.6 °F 48.9 °F 30.5 in East 2.9 mph 3 mph 78% 0 in 285 W/m2
10:44 56.7 °F 49.1 °F 30.5 in ENE 2 mph 3 mph 76% 0 in 276 W/m2
10:49 57.6 °F 49.3 °F 30.5 in East 0.9 mph 2 mph 74% 0 in 271 W/m2
10:54 58.3 °F 49.6 °F 30.5 in Calm     73% 0 in 250 W/m2
10:59 58.6 °F 49.3 °F 30.5 in Calm   1 mph 71% 0 in 313 W/m2
11:04 59.4 °F 49.6 °F 30.5 in Calm   3 mph 70% 0 in 352 W/m2
11:09 60.1 °F 49.8 °F 30.5 in NE 2 mph 3 mph 69% 0 in 360 W/m2
11:14 60.4 °F 49.8 °F 30.5 in ENE 2 mph 3 mph 68% 0 in 369 W/m2
11:19 61.2 °F 49.6 °F 30.5 in SE 2 mph 7 mph 66% 0 in 359 W/m2
11:24 61.5 °F 49.6 °F 30.5 in WNW 0.9 mph 4 mph 65% 0 in 287 W/m2
11:29 61.9 °F 50 °F 30.5 in NE 2 mph 4 mph 65% 0 in 248 W/m2
11:34 62.1 °F 49.8 °F 30.5 in NW 2.9 mph 4 mph 64% 0 in 225 W/m2
11:39 62.2 °F 50 °F 30.5 in West 2.9 mph 9 mph 64% 0 in 178 W/m2
11:44 62.2 °F 50 °F 30.5 in ENE 2 mph 3 mph 64% 0 in 220 W/m2
11:49 62.8 °F 50 °F 30.5 in SE 0.9 mph 2 mph 63% 0 in 185 W/m2
11:54 63 °F 50.2 °F 30.5 in ENE 2 mph 3 mph 63% 0 in 294 W/m2
11:59 63 °F 50.2 °F 30.5 in NW 0.9 mph 8 mph 63% 0 in 255 W/m2
12:04 63 °F 50.2 °F 30.5 in NNE 2 mph 5 mph 63% 0 in 285 W/m2
12:09 62.8 °F 50 °F 30.5 in NE 0.9 mph 8 mph 63% 0 in 265 W/m2
12:14 62.8 °F 50 °F 30.5 in Calm   3 mph 63% 0 in 496 W/m2
12:19 63.1 °F 49.8 °F 30.5 in NW 2 mph 5 mph 62% 0 in 434 W/m2
12:24 63.1 °F 50.4 °F 30.5 in ESE 0.9 mph 2 mph 63% 0 in 403 W/m2
12:29 63.3 °F 50 °F 30.5 in NNW 2.9 mph 4 mph 62% 0 in 279 W/m2
12:34 63.5 °F 50.2 °F 30.5 in SSE 4 mph 4 mph 62% 0 in 445 W/m2
12:39 63.7 °F 50.4 °F 30.5 in NW 2 mph 4 mph 62% 0 in 279 W/m2
12:44 63.7 °F 50 °F 30.5 in ESE 0.9 mph 2 mph 61% 0 in 309 W/m2
12:49 63.9 °F 50.2 °F 30.5 in WNW 2 mph 8 mph 61% 0 in 285 W/m2
12:54 63.9 °F 50.2 °F 30.5 in NE 0.9 mph 3 mph 61% 0 in 304 W/m2
12:59 63.9 °F 50.2 °F 30.5 in NW 2 mph 4 mph 61% 0 in 408 W/m2
13:04 64 °F 50.4 °F 30.5 in WNW 2 mph 4 mph 61% 0 in 420 W/m2
13:09 64.2 °F 50 °F 30.5 in NE 2 mph 2 mph 60% 0 in 301 W/m2
13:14 64.2 °F 50 °F 30.5 in NE 2 mph 2 mph 60% 0 in 338 W/m2
13:19 64.6 °F 50.4 °F 30.5 in WSW 4 mph 8 mph 60% 0 in 234 W/m2
13:24 64.2 °F 49.6 °F 30.5 in NNW 2 mph 4 mph 59% 0 in 139 W/m2
13:29 64.2 °F 50 °F 30.5 in NW 2 mph 8 mph 60% 0 in 199 W/m2
13:34 64.6 °F 50.9 °F 30.5 in NNW 2 mph 6 mph 61% 0 in 155 W/m2
13:39 64.8 °F 50.2 °F 30.5 in NW 0.9 mph 8 mph 59% 0 in 165 W/m2
13:44 64.8 °F 50.5 °F 30.5 in NE 2.9 mph 4 mph 60% 0 in 199 W/m2
13:49 64.9 °F 50.2 °F 30.5 in WSW 2.9 mph 10 mph 59% 0 in 204 W/m2
13:54 64.9 °F 50.2 °F 30.5 in NW 4.9 mph 6 mph 59% 0 in 192 W/m2
13:59 64.9 °F 50.2 °F 30.5 in ENE 0.9 mph 11 mph 59% 0 in 200 W/m2
14:04 65.1 °F 50 °F 30.5 in West 2.9 mph 4 mph 58% 0 in 211 W/m2
14:09 65.1 °F 50.4 °F 30.5 in West 2 mph 8 mph 59% 0 in 186 W/m2
14:14 65.3 °F 50.5 °F 30.5 in Calm   3 mph 59% 0 in 176 W/m2
14:19 65.5 °F 50.4 °F 30.5 in NNE 4 mph 8 mph 58% 0 in 213 W/m2
14:24 65.7 °F 50.5 °F 30.5 in West 2.9 mph 5 mph 58% 0 in 239 W/m2
14:29 65.7 °F 50.5 °F 30.5 in Calm   3 mph 58% 0 in 211 W/m2
14:34 65.8 °F 50.7 °F 30.5 in East 2.9 mph 6 mph 58% 0 in 278 W/m2
14:39 66 °F 50.4 °F 30.5 in NW 4 mph 4 mph 57% 0 in 299 W/m2
14:44 66 °F 50.4 °F 30.5 in NNW 0.9 mph 3 mph 57% 0 in 214 W/m2
14:49 66.2 °F 50.5 °F 30.5 in NNE 0.9 mph 6 mph 57% 0 in 192 W/m2
14:54 66.2 °F 50.5 °F 30.4 in NW 2 mph 5 mph 57% 0 in 139 W/m2
14:59 66.2 °F 50.5 °F 30.4 in NE 2.9 mph 4 mph 57% 0 in 146 W/m2
15:04 66.4 °F 50.7 °F 30.4 in East 4 mph 6 mph 57% 0 in 151 W/m2
15:09 66.4 °F 50.2 °F 30.4 in North 0.9 mph 2 mph 56% 0 in 139 W/m2
15:14 66.6 °F 50.4 °F 30.4 in North 0.9 mph 4 mph 56% 0 in 123 W/m2
15:19 66.7 °F 50.5 °F 30.4 in North 4.9 mph 5 mph 56% 0 in 141 W/m2
15:24 66.6 °F 49.8 °F 30.4 in NE 0.9 mph 5 mph 55% 0 in 139 W/m2
15:29 66.7 °F 50 °F 30.4 in East 4 mph 8 mph 55% 0 in 118 W/m2
15:34 66.7 °F 50 °F 30.4 in ENE 0.9 mph 4 mph 55% 0 in 163 W/m2
15:39 66.9 °F 49.8 °F 30.4 in WNW 2 mph 8 mph 54% 0 in 109 W/m2
15:44 66.9 °F 50.2 °F 30.4 in West 4 mph 7 mph 55% 0 in 111 W/m2
15:49 66.9 °F 50.2 °F 30.4 in NW 0.9 mph 2 mph 55% 0 in 135 W/m2
15:54 66.9 °F 50.2 °F 30.4 in Calm   3 mph 55% 0 in 144 W/m2
16:00 66.9 °F 50.2 °F 30.4 in North 2.9 mph 4 mph 55% 0 in 128 W/m2
16:05 67.1 °F 49.8 °F 30.4 in Calm   5 mph 54% 0 in 135 W/m2
16:10 67.1 °F 49.8 °F 30.4 in Calm   3 mph 54% 0 in 118 W/m2
16:15 67.1 °F 49.8 °F 30.4 in North 2 mph 4 mph 54% 0 in 141 W/m2
16:20 67.3 °F 50 °F 30.4 in West 6 mph 6 mph 54% 0 in 172 W/m2
16:25 67.3 °F 50 °F 30.4 in Calm   1 mph 54% 0 in 156 W/m2
16:30 67.3 °F 50 °F 30.4 in NE 4 mph 4 mph 54% 0 in 128 W/m2
16:35 66.9 °F 50.2 °F 30.4 in ENE 2 mph 4 mph 55% 0 in 91 W/m2
16:40 66.7 °F 50.5 °F 30.4 in East 2 mph 2 mph 56% 0 in 70 W/m2
16:45 66.6 °F 50.9 °F 30.4 in ESE 6.9 mph 8 mph 57% 0 in 65 W/m2
16:50 66.2 °F 50.9 °F 30.4 in ENE 2.9 mph 8 mph 58% 0 in 62 W/m2
16:55 66 °F 50.9 °F 30.4 in SE 4 mph 6 mph 58% 0 in 60 W/m2
17:00 65.8 °F 50.7 °F 30.4 in East 2.9 mph 5 mph 58% 0 in 56 W/m2
17:05 65.7 °F 50.9 °F 30.4 in East 2 mph 3 mph 59% 0 in 53 W/m2
17:10 65.5 °F 50.7 °F 30.4 in East 0.9 mph 5 mph 59% 0 in 49 W/m2
17:15 65.1 °F 50.9 °F 30.4 in ENE 2 mph 2 mph 60% 0 in 46 W/m2
17:20 64.9 °F 50.7 °F 30.4 in NW 0.9 mph 1 mph 60% 0 in 42 W/m2
17:25 64.6 °F 50.9 °F 30.4 in Calm   2 mph 61% 0 in 39 W/m2
17:30 64.2 °F 50.5 °F 30.4 in Calm   4 mph 61% 0 in 33 W/m2
17:35 64 °F 50.4 °F 30.4 in Calm   2 mph 61% 0 in 30 W/m2
17:40 63.9 °F 50.2 °F 30.4 in Calm   3 mph 61% 0 in 25 W/m2
17:45 63.7 °F 50.4 °F 30.4 in Calm     62% 0 in 21 W/m2
17:50 63.3 °F 50.5 °F 30.4 in Calm   3 mph 63% 0 in 16 W/m2
17:55 62.8 °F 50.4 °F 30.4 in Calm   1 mph 64% 0 in 12 W/m2
18:00 62.1 °F 50.2 °F 30.4 in Calm     65% 0 in 9 W/m2
18:05 61.2 °F 49.6 °F 30.4 in Calm   1 mph 66% 0 in 7 W/m2
18:10 60.6 °F 49.6 °F 30.5 in Calm     67% 0 in 5 W/m2
18:15 60.1 °F 49.5 °F 30.5 in Calm   1 mph 68% 0 in 0 W/m2
18:20 59.4 °F 49.6 °F 30.5 in Calm   1 mph 70% 0 in 0 W/m2
18:25 58.8 °F 49.5 °F 30.5 in Calm     71% 0 in 0 W/m2
18:30 58.5 °F 49.5 °F 30.5 in Calm     72% 0 in 0 W/m2
18:35 57.9 °F 48.9 °F 30.5 in Calm     72% 0 in 0 W/m2
18:40 57.6 °F 48.9 °F 30.5 in Calm   2 mph 73% 0 in 0 W/m2
18:45 57.4 °F 49.1 °F 30.5 in Calm     74% 0 in 0 W/m2
18:50 57 °F 48.7 °F 30.5 in Calm   2 mph 74% 0 in 0 W/m2
18:55 56.7 °F 48.7 °F 30.5 in Calm   1 mph 75% 0 in 0 W/m2
19:00 56.5 °F 48.7 °F 30.5 in Calm     75% 0 in 0 W/m2
19:05 56.3 °F 48.9 °F 30.5 in Calm   1 mph 76% 0 in 0 W/m2
19:10 55.9 °F 48.9 °F 30.5 in East 2 mph 2 mph 77% 0 in 0 W/m2
19:15 55.8 °F 48.7 °F 30.5 in Calm   1 mph 77% 0 in 0 W/m2
19:20 55.6 °F 48.9 °F 30.5 in Calm   1 mph 78% 0 in 0 W/m2
19:25 55.2 °F 48.6 °F 30.5 in Calm   1 mph 78% 0 in 0 W/m2
19:30 55 °F 48.6 °F 30.5 in East 0.9 mph 1 mph 79% 0 in 0 W/m2
19:35 55 °F 48.6 °F 30.5 in Calm   1 mph 79% 0 in 0 W/m2
19:40 55 °F 48.6 °F 30.5 in Calm   2 mph 79% 0 in 0 W/m2
19:45 54.9 °F 48.6 °F 30.5 in Calm   1 mph 79% 0 in 0 W/m2
19:50 54.9 °F 48.7 °F 30.5 in Calm   2 mph 80% 0 in 0 W/m2
19:55 54.7 °F 48.6 °F 30.5 in South 0.9 mph 2 mph 80% 0 in 0 W/m2
20:00 54.7 °F 48.6 °F 30.5 in Calm     80% 0 in 0 W/m2
20:05 54.7 °F 48.6 °F 30.5 in Calm   2 mph 80% 0 in 0 W/m2
20:10 54.7 °F 48.6 °F 30.5 in Calm   2 mph 80% 0 in 0 W/m2
20:15 54.5 °F 48.4 °F 30.5 in Calm   2 mph 80% 0 in 0 W/m2
20:20 54.3 °F 48.2 °F 30.5 in Calm   2 mph 80% 0 in 0 W/m2
20:25 54.1 °F 48 °F 30.5 in Calm     80% 0 in 0 W/m2
20:30 54.1 °F 48.4 °F 30.5 in WNW 0.9 mph 1 mph 81% 0 in 0 W/m2
20:35 54.1 °F 48.4 °F 30.5 in WNW 2 mph 3 mph 81% 0 in 0 W/m2
20:40 54 °F 48.2 °F 30.5 in Calm   1 mph 81% 0 in 0 W/m2
20:45 53.8 °F 48 °F 30.5 in Calm   3 mph 81% 0 in 0 W/m2
20:50 53.6 °F 47.8 °F 30.5 in Calm   1 mph 81% 0 in 0 W/m2
20:55 53.4 °F 48 °F 30.5 in Calm   1 mph 82% 0 in 0 W/m2
21:00 53.4 °F 48 °F 30.5 in Calm     82% 0 in 0 W/m2
21:05 53.2 °F 47.8 °F 30.5 in Calm   2 mph 82% 0 in 0 W/m2
21:10 53.1 °F 47.7 °F 30.5 in Calm     82% 0 in 0 W/m2
21:15 53.1 °F 48 °F 30.5 in Calm   2 mph 83% 0 in 0 W/m2
21:20 52.9 °F 47.8 °F 30.5 in Calm     83% 0 in 0 W/m2
21:25 52.7 °F 47.7 °F 30.5 in Calm     83% 0 in 0 W/m2
21:30 52.5 °F 47.5 °F 30.5 in Calm     83% 0 in 0 W/m2
21:35 52.3 °F 47.7 °F 30.5 in Calm   2 mph 84% 0 in 0 W/m2
21:40 52.3 °F 47.7 °F 30.5 in Calm   1 mph 84% 0 in 0 W/m2
21:45 52.2 °F 47.5 °F 30.5 in Calm   1 mph 84% 0 in 0 W/m2
21:50 52.2 °F 47.5 °F 30.5 in Calm   1 mph 84% 0 in 0 W/m2
21:55 52 °F 47.7 °F 30.5 in WSW 0.9 mph 1 mph 85% 0 in 0 W/m2
22:00 51.8 °F 47.5 °F 30.5 in Calm   2 mph 85% 0 in 0 W/m2
22:05 51.8 °F 47.5 °F 30.5 in WSW 0.9 mph 2 mph 85% 0 in 0 W/m2
22:10 51.8 °F 47.5 °F 30.5 in Calm   1 mph 85% 0 in 0 W/m2
22:15 51.8 °F 47.5 °F 30.5 in WSW 2 mph 2 mph 85% 0 in 0 W/m2
22:20 51.6 °F 47.3 °F 30.5 in Calm     85% 0 in 0 W/m2
22:25 51.4 °F 47.1 °F 30.5 in Calm     85% 0 in 0 W/m2
22:30 51.3 °F 47.3 °F 30.5 in Calm     86% 0 in 0 W/m2
22:35 51.3 °F 47.3 °F 30.5 in Calm     86% 0 in 0 W/m2
22:40 51.1 °F 47.1 °F 30.5 in Calm     86% 0 in 0 W/m2
22:45 50.9 °F 46.9 °F 30.5 in Calm     86% 0 in 0 W/m2
22:50 50.7 °F 46.8 °F 30.5 in Calm     86% 0 in 0 W/m2
22:55 50.7 °F 46.8 °F 30.5 in Calm     86% 0 in 0 W/m2
23:00 50.5 °F 46.8 °F 30.5 in Calm     87% 0 in 0 W/m2
23:05 50.4 °F 46.6 °F 30.5 in Calm     87% 0 in 0 W/m2
23:10 50.2 °F 46.4 °F 30.5 in Calm     87% 0 in 0 W/m2
23:15 50 °F 46.6 °F 30.5 in Calm     88% 0 in 0 W/m2
23:21 49.8 °F 46.4 °F 30.5 in Calm     88% 0 in 0 W/m2
23:26 49.8 °F 46.4 °F 30.5 in Calm     88% 0 in 0 W/m2
23:31 49.6 °F 46.2 °F 30.5 in Calm     88% 0 in 0 W/m2
23:36 49.6 °F 46.6 °F 30.5 in Calm     89% 0 in 0 W/m2
23:41 49.6 °F 46.6 °F 30.5 in Calm   1 mph 89% 0 in 0 W/m2
23:46 49.6 °F 46.6 °F 30.5 in Calm     89% 0 in 0 W/m2
23:51 49.6 °F 46.6 °F 30.5 in Calm     89% 0 in 0 W/m2
23:56 49.6 °F 46.8 °F 30.5 in Calm     90% 0 in 0 W/m2
Juneau County Weather
Compliments of Weather Underground - 4 mb